MSC Magnifica — 3FLO4 — position and weather

sailwx.info

Track history (hours):
 
Tides and Currents Weather Stations Pressure Air Temp Water Temp Dewpoint Dewpoint Depression Visibility Wind Speed Wind Dir Waves Ship Positions

MSC Magnifica

Last reported at 2017-May-29 16:55 UTC. Time now 2017-May-29 17:02 UTC.
Position N 59°57' E 030°11'.

Length 294 m; draft 8.1 m.

Type: Ship. MMSI: 352594000.

Date/timePositionNaut miles runAvg speedWind from/ knotsBaromVisibWave heightAir tempDewpointWater temp
2017-May-29 16:55N 59°57' E 030°11'0 0.0
2017-May-29 16:30N 59°57' E 030°11'0 0.0
2017-May-29 16:00N 59°57' E 030°11'0 0.0
2017-May-29 15:30N 59°57' E 030°11'0 0.0
2017-May-29 15:00N 59°57' E 030°11'0 0.0
2017-May-29 14:30N 59°57' E 030°11'0 0.0
2017-May-29 13:30N 59°57' E 030°11'0 0.0
2017-May-29 13:00N 59°57' E 030°11'0 0.0
2017-May-29 12:29N 59°57' E 030°11'0 0.0
2017-May-29 11:59N 59°57' E 030°11'0 0.0
2017-May-29 11:30N 59°57' E 030°11'0 0.0
2017-May-29 10:59N 59°57' E 030°11'0 0.0
2017-May-29 10:29N 59°57' E 030°11'0 0.0
2017-May-29 09:58N 59°57' E 030°11'0 0.0
2017-May-29 09:28N 59°57' E 030°11'0 0.0
2017-May-29 08:58N 59°57' E 030°11'0 0.0
2017-May-29 08:30N 59°57' E 030°11'0 0.0
2017-May-29 07:59N 59°57' E 030°11'0 0.0
2017-May-29 07:28N 59°57' E 030°11'0 0.0
2017-May-29 07:00N 59°57' E 030°11'0 0.0
2017-May-29 06:28N 59°57' E 030°11'0 0.0
2017-May-29 05:57N 59°57' E 030°11'0 0.0
2017-May-29 05:30N 59°57' E 030°11'0 0.0
2017-May-29 04:59N 59°57' E 030°11'0 0.0
2017-May-29 04:28N 59°57' E 030°11'0 0.0
2017-May-29 04:00N 59°57' E 030°11'0 0.0
2017-May-29 03:29N 59°57' E 030°11'0 0.0
2017-May-29 03:01N 59°57' E 030°11'2 3.1
2017-May-29 02:30N 59°57' E 030°08'5 9.5
2017-May-29 02:00N 59°55' E 029°60'611.9
2017-May-29 01:30N 59°58' E 029°49'510.2
2017-May-29 01:01N 59°60' E 029°39'612.5
2017-May-29 00:30N 60°01' E 029°27'714.2
2017-May-28 23:59N 60°01' E 029°13'713.9
2017-May-28 23:30N 60°02' E 028°59'714.0
2017-May-28 23:00N 60°02' E 028°45'714.3
2017-May-28 22:30N 60°02' E 028°31'713.8
2017-May-28 22:00N 60°06' E 028°19'713.9
2017-May-28 21:31N 60°08' E 028°06'714.0
2017-May-28 21:00N 60°10' E 027°52'713.2
2017-May-28 20:30N 60°09' E 027°39'713.5
2017-May-28 20:00N 60°05' E 027°28'713.4
2017-May-28 19:30N 60°02' E 027°16'713.4
2017-May-28 19:00N 59°58' E 027°05'713.6
2017-May-28 18:30N 59°59' E 026°51'714.7
2017-May-28 18:00N 59°59' E 026°37'814.9
2017-May-28 17:29N 59°57' E 026°22'714.8
2017-May-28 16:59N 59°55' E 026°08'714.6
2017-May-28 16:30N 59°53' E 025°54'714.5
2017-May-28 16:00N 59°51' E 025°40'713.9
2017-May-28 15:30N 59°49' E 025°27'713.7
2017-May-28 14:58N 59°47' E 025°13'1414.3
2017-May-28 14:00N 59°41' E 024°48'14 1.5
2017-May-28 05:13N 59°28' E 024°46'2 9.1
2017-May-28 05:00N 59°30' E 024°44'2115.3
2017-May-28 03:37N 59°29' E 024°02'318.4
2017-May-28 03:28N 59°29' E 023°57'818.4
2017-May-28 03:00N 59°28' E 023°41'918.3
2017-May-28 02:30N 59°27' E 023°23'918.5
2017-May-28 02:00N 59°26' E 023°04'228 6.4
2017-May-26 14:31N 55°52' E 020°40'017.0
2017-May-26 14:30N 55°52' E 020°40'65 3.8
2017-May-25 21:18N 55°03' E 019°27'510.7
2017-May-25 20:50N 54°59' E 019°21'410.9
2017-May-25 20:27N 54°56' E 019°16'511.1
2017-May-25 20:00N 54°51' E 019°12'611.1
2017-May-25 19:30N 54°47' E 019°06'511.0
2017-May-25 19:00N 54°42' E 019°01'611.0
2017-May-25 18:30N 54°38' E 018°56'713.2
2017-May-25 18:00N 54°32' E 018°49'612.8
2017-May-25 17:30N 54°32' E 018°38'3 5.9
2017-May-25 17:00N 54°32' E 018°33'0 0.0
2017-May-25 16:28N 54°32' E 018°33'0 0.0
2017-May-25 15:58N 54°32' E 018°33'0 0.0
2017-May-25 15:28N 54°32' E 018°33'0 0.0
2017-May-25 14:58N 54°32' E 018°33'0 0.0
2017-May-25 13:57N 54°32' E 018°33'0 0.0
2017-May-25 13:30N 54°32' E 018°33'0 0.0
2017-May-25 13:01N 54°32' E 018°33'0 0.0
2017-May-25 12:28N 54°32' E 018°33'0 0.0
2017-May-25 11:58N 54°32' E 018°33'0 0.0
2017-May-25 11:28N 54°32' E 018°33'0 0.0
2017-May-25 10:58N 54°32' E 018°33'0 0.0
2017-May-25 10:28N 54°32' E 018°33'0 0.0
2017-May-25 09:58N 54°32' E 018°33'0 0.0
2017-May-25 09:31N 54°32' E 018°33'2 3.7
2017-May-25 09:01N 54°32' E 018°36'815.1
2017-May-25 08:30N 54°33' E 018°49'917.9
2017-May-25 08:00N 54°41' E 018°57'917.1
2017-May-25 07:30N 54°49' E 018°53'917.9
2017-May-25 07:00N 54°55' E 018°41'917.6
2017-May-25 06:30N 54°57' E 018°26'918.3
2017-May-25 06:00N 54°55' E 018°10'1019.7
2017-May-25 05:30N 54°54' E 017°53'1020.2
2017-May-25 05:00N 54°53' E 017°36'1020.4
2017-May-25 04:30N 54°53' E 017°18'1020.2
2017-May-25 04:00N 54°50' E 017°01'1020.3
2017-May-25 03:30N 54°48' E 016°44'1020.2
2017-May-25 03:00N 54°46' E 016°27'1020.2
2017-May-25 02:30N 54°45' E 016°09'1220.3
2017-May-25 01:56N 54°43' E 015°49'920.3
2017-May-25 01:30N 54°42' E 015°35'1020.1
2017-May-25 01:00N 54°40' E 015°18'1020.1
2017-May-25 00:30N 54°39' E 015°00'1020.2
2017-May-25 00:00N 54°37' E 014°43'1020.3
2017-May-24 23:30N 54°36' E 014°26'1020.1
2017-May-24 23:00N 54°38' E 014°09'3120.2
2017-May-24 21:27N 54°46' E 013°16'919.9
2017-May-24 21:00N 54°46' E 013°01'1018.7
2017-May-24 20:29N 54°45' E 012°44'919.3
2017-May-24 20:00N 54°40' E 012°31'1918.7
2017-May-24 19:00N 54°25' E 012°11'1016.8
2017-May-24 18:25N 54°16' E 012°05'511.9
2017-May-24 18:00N 54°11' E 012°05'1 0.1
2017-May-24 05:30N 54°10' E 012°06'5 6.5
2017-May-24 04:47N 54°14' E 012°03'1 1.7
2017-May-24 04:28N 54°14' E 012°02'12 5.9
2017-May-24 02:23N 54°26' E 012°05'5 8.1
2017-May-24 01:47N 54°30' E 012°11'2 8.2
2017-May-24 01:30N 54°32' E 012°12'4 8.5
2017-May-24 01:00N 54°36' E 012°14'4 8.4
2017-May-24 00:30N 54°39' E 012°18'22 8.3
2017-May-23 21:54N 54°57' E 012°39'3 8.3
2017-May-23 21:29N 55°01' E 012°39'4 8.4
2017-May-23 20:58N 55°05' E 012°39'4 8.3
2017-May-23 20:30N 55°09' E 012°38'4 8.3
2017-May-23 20:00N 55°13' E 012°38'4 8.5
2017-May-23 19:30N 55°17' E 012°38'4 8.5
2017-May-23 19:00N 55°21' E 012°38'4 8.5
2017-May-23 18:30N 55°26' E 012°39'4 8.5
2017-May-23 18:00N 55°30' E 012°41'4 8.3
2017-May-23 17:30N 55°34' E 012°42'4 7.3
2017-May-23 17:00N 55°38' E 012°42'4 7.9
2017-May-23 16:30N 55°41' E 012°41'2 4.6
2017-May-23 16:01N 55°43' E 012°38'0 0.3
2017-May-23 15:29N 55°43' E 012°38'0 0.0
2017-May-23 14:59N 55°43' E 012°38'0 0.0
2017-May-23 14:29N 55°43' E 012°38'0 0.0
2017-May-23 13:28N 55°43' E 012°38'0 0.0
2017-May-23 12:58N 55°43' E 012°38'0 0.0
2017-May-23 12:28N 55°43' E 012°38'0 0.0
2017-May-23 11:58N 55°43' E 012°38'0 0.0
2017-May-23 11:28N 55°43' E 012°38'0 0.0
2017-May-23 11:00N 55°43' E 012°38'0 0.0
2017-May-23 10:29N 55°43' E 012°38'0 0.0
2017-May-23 09:59N 55°43' E 012°38'0 0.0
2017-May-23 09:29N 55°43' E 012°38'0 0.0
2017-May-23 08:59N 55°43' E 012°38'0 0.0
2017-May-23 08:29N 55°43' E 012°38'0 0.0
2017-May-23 07:59N 55°43' E 012°38'0 0.0
2017-May-23 07:29N 55°43' E 012°38'0 0.0
2017-May-23 06:58N 55°43' E 012°38'0 0.0
2017-May-23 06:30N 55°43' E 012°38'0 0.0
2017-May-23 06:00N 55°43' E 012°38'0 0.0
2017-May-23 05:30N 55°43' E 012°38'2 4.0
2017-May-23 05:00N 55°43' E 012°41'611.8
2017-May-23 04:30N 55°37' E 012°42'4 7.7
2017-May-23 04:00N 55°33' E 012°42'510.7
2017-May-23 03:30N 55°28' E 012°42'713.1
2017-May-23 03:00N 55°22' E 012°41'611.4
2017-May-23 02:30N 55°17' E 012°47'713.5
2017-May-23 02:00N 55°16' E 012°58'713.7
2017-May-23 01:30N 55°15' E 013°10'713.7
2017-May-23 01:00N 55°15' E 013°23'813.9
2017-May-23 00:27N 55°14' E 013°36'613.8
2017-May-22 23:59N 55°14' E 013°47'713.7
2017-May-22 23:30N 55°13' E 013°59'713.7
2017-May-22 23:00N 55°13' E 014°11'612.8
2017-May-22 22:30N 55°16' E 014°21'714.1
2017-May-22 22:00N 55°21' E 014°28'714.3
2017-May-22 21:31N 55°27' E 014°36'713.9
2017-May-22 21:00N 55°30' E 014°47'612.8
2017-May-22 20:30N 55°33' E 014°57'613.0
2017-May-22 20:01N 55°36' E 015°07'713.5
2017-May-22 19:31N 55°39' E 015°17'713.6
2017-May-22 19:01N 55°42' E 015°28'713.7
2017-May-22 18:31N 55°45' E 015°40'713.5
2017-May-22 18:01N 55°47' E 015°51'713.2
2017-May-22 17:31N 55°50' E 016°01'713.1
2017-May-22 17:01N 55°54' E 016°11'713.2
2017-May-22 16:30N 55°58' E 016°21'612.9
2017-May-22 16:01N 56°02' E 016°29'611.8
2017-May-22 15:31N 56°06' E 016°37'713.0
2017-May-22 15:01N 56°11' E 016°45'1313.4
2017-May-22 14:01N 56°23' E 016°54'713.3
2017-May-22 13:31N 56°29' E 016°58'20110.7
2017-May-21 18:40N 59°40' E 018°57'2 9.6
2017-May-21 18:29N 59°39' E 018°54'611.5
2017-May-21 18:00N 59°36' E 018°46'710.9
2017-May-21 17:21N 59°32' E 018°34'4 9.9
2017-May-21 16:56N 59°29' E 018°27'510.5
2017-May-21 16:30N 59°25' E 018°24'3 6.9
2017-May-21 16:00N 59°22' E 018°24'510.0
2017-May-21 15:30N 59°21' E 018°15'4 7.1
2017-May-21 15:00N 59°21' E 018°08'0 0.0
2017-May-21 13:59N 59°21' E 018°08'0 0.0
2017-May-21 13:29N 59°21' E 018°08'0 0.0
2017-May-21 12:59N 59°21' E 018°08'0 0.0
2017-May-21 12:26N 59°21' E 018°08'0 0.0
2017-May-21 12:01N 59°21' E 018°08'0 0.0
2017-May-21 11:30N 59°21' E 018°08'0 0.0
2017-May-21 10:59N 59°21' E 018°08'0 0.0
2017-May-21 10:25N 59°21' E 018°08'0 0.0
2017-May-21 09:52N 59°21' E 018°08'0 0.0
2017-May-21 09:19N 59°21' E 018°08'0 0.0
2017-May-21 08:49N 59°21' E 018°08'0 0.0
2017-May-21 08:25N 59°21' E 018°08'0 0.0
2017-May-21 07:58N 59°21' E 018°08'0 0.0
2017-May-21 07:28N 59°21' E 018°08'0 0.0
2017-May-21 07:00N 59°21' E 018°08'0 0.0
2017-May-21 06:30N 59°21' E 018°08'1 1.4
2017-May-21 06:00N 59°20' E 018°09'5 9.1
2017-May-21 05:30N 59°22' E 018°17'5 9.8
2017-May-21 05:00N 59°22' E 018°27'5 9.7
2017-May-21 04:30N 59°26' E 018°23'610.9
2017-May-21 04:00N 59°31' E 018°30'5 9.7
2017-May-21 03:31N 59°33' E 018°37'611.9
2017-May-21 03:00N 59°36' E 018°48'611.0
2017-May-21 02:30N 59°40' E 018°56'714.9
2017-May-21 02:00N 59°44' E 019°09'815.2
2017-May-21 01:27N 59°47' E 019°24'613.0
2017-May-21 01:00N 59°48' E 019°36'812.5
2017-May-21 00:20N 59°44' E 019°51'513.3
2017-May-20 23:59N 59°41' E 019°57'4013.0
2017-May-20 20:55N 59°33' E 021°14'613.5
2017-May-20 20:30N 59°32' E 021°25'713.2
2017-May-20 20:01N 59°31' E 021°38'713.1
2017-May-20 19:30N 59°30' E 021°51'713.0
2017-May-20 18:59N 59°29' E 022°04'613.2
2017-May-20 18:30N 59°28' E 022°16'2613.4
2017-May-20 16:33N 59°36' E 023°05'114.1
2017-May-20 16:30N 59°37' E 023°06'714.3
2017-May-20 16:01N 59°38' E 023°20'714.0
2017-May-20 15:30N 59°40' E 023°33'714.2
2017-May-20 15:00N 59°42' E 023°47'713.9
2017-May-20 14:30N 59°44' E 023°60'33 2.9
2017-May-20 03:10N 59°59' E 024°57'4116.4
2017-May-20 00:39N 59°60' E 026°19'317.3
2017-May-20 00:29N 60°00' E 026°25'817.2
2017-May-20 00:01N 60°01' E 026°41'917.3
2017-May-19 23:30N 59°60' E 026°59'816.8
2017-May-19 23:00N 60°02' E 027°14'917.3
2017-May-19 22:30N 60°07' E 027°29'917.1
2017-May-19 22:00N 60°12' E 027°44'816.7
2017-May-19 21:30N 60°10' E 028°00'816.7
2017-May-19 21:00N 60°08' E 028°16'816.7
2017-May-19 20:30N 60°03' E 028°30'816.8
2017-May-19 20:00N 60°03' E 028°47'816.8
2017-May-19 19:30N 60°02' E 029°04'816.9
2017-May-19 19:00N 60°02' E 029°21'913.2
2017-May-19 18:21N 60°00' E 029°38'411.3
2017-May-19 18:00N 59°59' E 029°45'611.0
2017-May-19 17:30N 59°56' E 029°55'510.2
2017-May-19 17:00N 59°56' E 030°05'  
Track history (hours):
 
Tides and Currents Weather Stations Pressure Air Temp Water Temp Dewpoint Dewpoint Depression Visibility Wind Speed Wind Dir Waves Ship Positions

MSC Magnifica

Last reported at 2017-May-29 16:55 UTC. Time now 2017-May-29 17:02 UTC.
Position N 59°57' E 030°11'.

Length 294 m; draft 8.1 m.

Type: Ship. MMSI: 352594000.

Date/timePositionNaut miles runAvg speedWind from/ knotsBaromVisibWave heightAir tempDewpointWater temp
2017-May-29 16:55N 59°57' E 030°11'0 0.0
2017-May-29 16:30N 59°57' E 030°11'0 0.0
2017-May-29 16:00N 59°57' E 030°11'0 0.0
2017-May-29 15:30N 59°57' E 030°11'0 0.0
2017-May-29 15:00N 59°57' E 030°11'0 0.0
2017-May-29 14:30N 59°57' E 030°11'0 0.0
2017-May-29 13:30N 59°57' E 030°11'0 0.0
2017-May-29 13:00N 59°57' E 030°11'0 0.0
2017-May-29 12:29N 59°57' E 030°11'0 0.0
2017-May-29 11:59N 59°57' E 030°11'0 0.0
2017-May-29 11:30N 59°57' E 030°11'0 0.0
2017-May-29 10:59N 59°57' E 030°11'0 0.0
2017-May-29 10:29N 59°57' E 030°11'0 0.0
2017-May-29 09:58N 59°57' E 030°11'0 0.0
2017-May-29 09:28N 59°57' E 030°11'0 0.0
2017-May-29 08:58N 59°57' E 030°11'0 0.0
2017-May-29 08:30N 59°57' E 030°11'0 0.0
2017-May-29 07:59N 59°57' E 030°11'0 0.0
2017-May-29 07:28N 59°57' E 030°11'0 0.0
2017-May-29 07:00N 59°57' E 030°11'0 0.0
2017-May-29 06:28N 59°57' E 030°11'0 0.0
2017-May-29 05:57N 59°57' E 030°11'0 0.0
2017-May-29 05:30N 59°57' E 030°11'0 0.0
2017-May-29 04:59N 59°57' E 030°11'0 0.0
2017-May-29 04:28N 59°57' E 030°11'0 0.0
2017-May-29 04:00N 59°57' E 030°11'0 0.0
2017-May-29 03:29N 59°57' E 030°11'0 0.0
2017-May-29 03:01N 59°57' E 030°11'2 3.1
2017-May-29 02:30N 59°57' E 030°08'5 9.5
2017-May-29 02:00N 59°55' E 029°60'611.9
2017-May-29 01:30N 59°58' E 029°49'510.2
2017-May-29 01:01N 59°60' E 029°39'612.5
2017-May-29 00:30N 60°01' E 029°27'714.2
2017-May-28 23:59N 60°01' E 029°13'713.9
2017-May-28 23:30N 60°02' E 028°59'714.0
2017-May-28 23:00N 60°02' E 028°45'714.3
2017-May-28 22:30N 60°02' E 028°31'713.8
2017-May-28 22:00N 60°06' E 028°19'713.9
2017-May-28 21:31N 60°08' E 028°06'714.0
2017-May-28 21:00N 60°10' E 027°52'713.2
2017-May-28 20:30N 60°09' E 027°39'713.5
2017-May-28 20:00N 60°05' E 027°28'713.4
2017-May-28 19:30N 60°02' E 027°16'713.4
2017-May-28 19:00N 59°58' E 027°05'713.6
2017-May-28 18:30N 59°59' E 026°51'714.7
2017-May-28 18:00N 59°59' E 026°37'814.9
2017-May-28 17:29N 59°57' E 026°22'714.8
2017-May-28 16:59N 59°55' E 026°08'714.6
2017-May-28 16:30N 59°53' E 025°54'714.5
2017-May-28 16:00N 59°51' E 025°40'713.9
2017-May-28 15:30N 59°49' E 025°27'713.7
2017-May-28 14:58N 59°47' E 025°13'1414.3
2017-May-28 14:00N 59°41' E 024°48'14 1.5
2017-May-28 05:13N 59°28' E 024°46'2 9.1
2017-May-28 05:00N 59°30' E 024°44'2115.3
2017-May-28 03:37N 59°29' E 024°02'318.4
2017-May-28 03:28N 59°29' E 023°57'818.4
2017-May-28 03:00N 59°28' E 023°41'918.3
2017-May-28 02:30N 59°27' E 023°23'918.5
2017-May-28 02:00N 59°26' E 023°04'228 6.4
2017-May-26 14:31N 55°52' E 020°40'017.0
2017-May-26 14:30N 55°52' E 020°40'65 3.8
2017-May-25 21:18N 55°03' E 019°27'510.7
2017-May-25 20:50N 54°59' E 019°21'410.9
2017-May-25 20:27N 54°56' E 019°16'511.1
2017-May-25 20:00N 54°51' E 019°12'611.1
2017-May-25 19:30N 54°47' E 019°06'511.0
2017-May-25 19:00N 54°42' E 019°01'611.0
2017-May-25 18:30N 54°38' E 018°56'713.2
2017-May-25 18:00N 54°32' E 018°49'612.8
2017-May-25 17:30N 54°32' E 018°38'3 5.9
2017-May-25 17:00N 54°32' E 018°33'0 0.0
2017-May-25 16:28N 54°32' E 018°33'0 0.0
2017-May-25 15:58N 54°32' E 018°33'0 0.0
2017-May-25 15:28N 54°32' E 018°33'0 0.0
2017-May-25 14:58N 54°32' E 018°33'0 0.0
2017-May-25 13:57N 54°32' E 018°33'0 0.0
2017-May-25 13:30N 54°32' E 018°33'0 0.0
2017-May-25 13:01N 54°32' E 018°33'0 0.0
2017-May-25 12:28N 54°32' E 018°33'0 0.0
2017-May-25 11:58N 54°32' E 018°33'0 0.0
2017-May-25 11:28N 54°32' E 018°33'0 0.0
2017-May-25 10:58N 54°32' E 018°33'0 0.0
2017-May-25 10:28N 54°32' E 018°33'0 0.0
2017-May-25 09:58N 54°32' E 018°33'0 0.0
2017-May-25 09:31N 54°32' E 018°33'2 3.7
2017-May-25 09:01N 54°32' E 018°36'815.1
2017-May-25 08:30N 54°33' E 018°49'917.9
2017-May-25 08:00N 54°41' E 018°57'917.1
2017-May-25 07:30N 54°49' E 018°53'917.9
2017-May-25 07:00N 54°55' E 018°41'917.6
2017-May-25 06:30N 54°57' E 018°26'918.3
2017-May-25 06:00N 54°55' E 018°10'1019.7
2017-May-25 05:30N 54°54' E 017°53'1020.2
2017-May-25 05:00N 54°53' E 017°36'1020.4
2017-May-25 04:30N 54°53' E 017°18'1020.2
2017-May-25 04:00N 54°50' E 017°01'1020.3
2017-May-25 03:30N 54°48' E 016°44'1020.2
2017-May-25 03:00N 54°46' E 016°27'1020.2
2017-May-25 02:30N 54°45' E 016°09'1220.3
2017-May-25 01:56N 54°43' E 015°49'920.3
2017-May-25 01:30N 54°42' E 015°35'1020.1
2017-May-25 01:00N 54°40' E 015°18'1020.1
2017-May-25 00:30N 54°39' E 015°00'1020.2
2017-May-25 00:00N 54°37' E 014°43'1020.3
2017-May-24 23:30N 54°36' E 014°26'1020.1
2017-May-24 23:00N 54°38' E 014°09'3120.2
2017-May-24 21:27N 54°46' E 013°16'919.9
2017-May-24 21:00N 54°46' E 013°01'1018.7
2017-May-24 20:29N 54°45' E 012°44'919.3
2017-May-24 20:00N 54°40' E 012°31'1918.7
2017-May-24 19:00N 54°25' E 012°11'1016.8
2017-May-24 18:25N 54°16' E 012°05'511.9
2017-May-24 18:00N 54°11' E 012°05'1 0.1
2017-May-24 05:30N 54°10' E 012°06'5 6.5
2017-May-24 04:47N 54°14' E 012°03'1 1.7
2017-May-24 04:28N 54°14' E 012°02'12 5.9
2017-May-24 02:23N 54°26' E 012°05'5 8.1
2017-May-24 01:47N 54°30' E 012°11'2 8.2
2017-May-24 01:30N 54°32' E 012°12'4 8.5
2017-May-24 01:00N 54°36' E 012°14'4 8.4
2017-May-24 00:30N 54°39' E 012°18'22 8.3
2017-May-23 21:54N 54°57' E 012°39'3 8.3
2017-May-23 21:29N 55°01' E 012°39'4 8.4
2017-May-23 20:58N 55°05' E 012°39'4 8.3
2017-May-23 20:30N 55°09' E 012°38'4 8.3
2017-May-23 20:00N 55°13' E 012°38'4 8.5
2017-May-23 19:30N 55°17' E 012°38'4 8.5
2017-May-23 19:00N 55°21' E 012°38'4 8.5
2017-May-23 18:30N 55°26' E 012°39'4 8.5
2017-May-23 18:00N 55°30' E 012°41'4 8.3
2017-May-23 17:30N 55°34' E 012°42'4 7.3
2017-May-23 17:00N 55°38' E 012°42'4 7.9
2017-May-23 16:30N 55°41' E 012°41'2 4.6
2017-May-23 16:01N 55°43' E 012°38'0 0.3
2017-May-23 15:29N 55°43' E 012°38'0 0.0
2017-May-23 14:59N 55°43' E 012°38'0 0.0
2017-May-23 14:29N 55°43' E 012°38'0 0.0
2017-May-23 13:28N 55°43' E 012°38'0 0.0
2017-May-23 12:58N 55°43' E 012°38'0 0.0
2017-May-23 12:28N 55°43' E 012°38'0 0.0
2017-May-23 11:58N 55°43' E 012°38'0 0.0
2017-May-23 11:28N 55°43' E 012°38'0 0.0
2017-May-23 11:00N 55°43' E 012°38'0 0.0
2017-May-23 10:29N 55°43' E 012°38'0 0.0
2017-May-23 09:59N 55°43' E 012°38'0 0.0
2017-May-23 09:29N 55°43' E 012°38'0 0.0
2017-May-23 08:59N 55°43' E 012°38'0 0.0
2017-May-23 08:29N 55°43' E 012°38'0 0.0
2017-May-23 07:59N 55°43' E 012°38'0 0.0
2017-May-23 07:29N 55°43' E 012°38'0 0.0
2017-May-23 06:58N 55°43' E 012°38'0 0.0
2017-May-23 06:30N 55°43' E 012°38'0 0.0
2017-May-23 06:00N 55°43' E 012°38'0 0.0
2017-May-23 05:30N 55°43' E 012°38'2 4.0
2017-May-23 05:00N 55°43' E 012°41'611.8
2017-May-23 04:30N 55°37' E 012°42'4 7.7
2017-May-23 04:00N 55°33' E 012°42'510.7
2017-May-23 03:30N 55°28' E 012°42'713.1
2017-May-23 03:00N 55°22' E 012°41'611.4
2017-May-23 02:30N 55°17' E 012°47'713.5
2017-May-23 02:00N 55°16' E 012°58'713.7
2017-May-23 01:30N 55°15' E 013°10'713.7
2017-May-23 01:00N 55°15' E 013°23'813.9
2017-May-23 00:27N 55°14' E 013°36'613.8
2017-May-22 23:59N 55°14' E 013°47'713.7
2017-May-22 23:30N 55°13' E 013°59'713.7
2017-May-22 23:00N 55°13' E 014°11'612.8
2017-May-22 22:30N 55°16' E 014°21'714.1
2017-May-22 22:00N 55°21' E 014°28'714.3
2017-May-22 21:31N 55°27' E 014°36'713.9
2017-May-22 21:00N 55°30' E 014°47'612.8
2017-May-22 20:30N 55°33' E 014°57'613.0
2017-May-22 20:01N 55°36' E 015°07'713.5
2017-May-22 19:31N 55°39' E 015°17'713.6
2017-May-22 19:01N 55°42' E 015°28'713.7
2017-May-22 18:31N 55°45' E 015°40'713.5
2017-May-22 18:01N 55°47' E 015°51'713.2
2017-May-22 17:31N 55°50' E 016°01'713.1
2017-May-22 17:01N 55°54' E 016°11'713.2
2017-May-22 16:30N 55°58' E 016°21'612.9
2017-May-22 16:01N 56°02' E 016°29'611.8
2017-May-22 15:31N 56°06' E 016°37'713.0
2017-May-22 15:01N 56°11' E 016°45'1313.4
2017-May-22 14:01N 56°23' E 016°54'713.3
2017-May-22 13:31N 56°29' E 016°58'20110.7
2017-May-21 18:40N 59°40' E 018°57'2 9.6
2017-May-21 18:29N 59°39' E 018°54'611.5
2017-May-21 18:00N 59°36' E 018°46'710.9
2017-May-21 17:21N 59°32' E 018°34'4 9.9
2017-May-21 16:56N 59°29' E 018°27'510.5
2017-May-21 16:30N 59°25' E 018°24'3 6.9
2017-May-21 16:00N 59°22' E 018°24'510.0
2017-May-21 15:30N 59°21' E 018°15'4 7.1
2017-May-21 15:00N 59°21' E 018°08'0 0.0
2017-May-21 13:59N 59°21' E 018°08'0 0.0
2017-May-21 13:29N 59°21' E 018°08'0 0.0
2017-May-21 12:59N 59°21' E 018°08'0 0.0
2017-May-21 12:26N 59°21' E 018°08'0 0.0
2017-May-21 12:01N 59°21' E 018°08'0 0.0
2017-May-21 11:30N 59°21' E 018°08'0 0.0
2017-May-21 10:59N 59°21' E 018°08'0 0.0
2017-May-21 10:25N 59°21' E 018°08'0 0.0
2017-May-21 09:52N 59°21' E 018°08'0 0.0
2017-May-21 09:19N 59°21' E 018°08'0 0.0
2017-May-21 08:49N 59°21' E 018°08'0 0.0
2017-May-21 08:25N 59°21' E 018°08'0 0.0
2017-May-21 07:58N 59°21' E 018°08'0 0.0
2017-May-21 07:28N 59°21' E 018°08'0 0.0
2017-May-21 07:00N 59°21' E 018°08'0 0.0
2017-May-21 06:30N 59°21' E 018°08'1 1.4
2017-May-21 06:00N 59°20' E 018°09'5 9.1
2017-May-21 05:30N 59°22' E 018°17'5 9.8
2017-May-21 05:00N 59°22' E 018°27'5 9.7
2017-May-21 04:30N 59°26' E 018°23'610.9
2017-May-21 04:00N 59°31' E 018°30'5 9.7
2017-May-21 03:31N 59°33' E 018°37'611.9
2017-May-21 03:00N 59°36' E 018°48'611.0
2017-May-21 02:30N 59°40' E 018°56'714.9
2017-May-21 02:00N 59°44' E 019°09'815.2
2017-May-21 01:27N 59°47' E 019°24'613.0
2017-May-21 01:00N 59°48' E 019°36'812.5
2017-May-21 00:20N 59°44' E 019°51'513.3
2017-May-20 23:59N 59°41' E 019°57'4013.0
2017-May-20 20:55N 59°33' E 021°14'613.5
2017-May-20 20:30N 59°32' E 021°25'713.2
2017-May-20 20:01N 59°31' E 021°38'713.1
2017-May-20 19:30N 59°30' E 021°51'713.0
2017-May-20 18:59N 59°29' E 022°04'613.2
2017-May-20 18:30N 59°28' E 022°16'2613.4
2017-May-20 16:33N 59°36' E 023°05'114.1
2017-May-20 16:30N 59°37' E 023°06'714.3
2017-May-20 16:01N 59°38' E 023°20'714.0
2017-May-20 15:30N 59°40' E 023°33'714.2
2017-May-20 15:00N 59°42' E 023°47'713.9
2017-May-20 14:30N 59°44' E 023°60'33 2.9
2017-May-20 03:10N 59°59' E 024°57'4116.4
2017-May-20 00:39N 59°60' E 026°19'317.3
2017-May-20 00:29N 60°00' E 026°25'817.2
2017-May-20 00:01N 60°01' E 026°41'917.3
2017-May-19 23:30N 59°60' E 026°59'816.8
2017-May-19 23:00N 60°02' E 027°14'917.3
2017-May-19 22:30N 60°07' E 027°29'917.1
2017-May-19 22:00N 60°12' E 027°44'816.7
2017-May-19 21:30N 60°10' E 028°00'816.7
2017-May-19 21:00N 60°08' E 028°16'816.7
2017-May-19 20:30N 60°03' E 028°30'816.8
2017-May-19 20:00N 60°03' E 028°47'816.8
2017-May-19 19:30N 60°02' E 029°04'816.9
2017-May-19 19:00N 60°02' E 029°21'913.2
2017-May-19 18:21N 60°00' E 029°38'411.3
2017-May-19 18:00N 59°59' E 029°45'611.0
2017-May-19 17:30N 59°56' E 029°55'510.2
2017-May-19 17:00N 59°56' E 030°05'  

Dump ship's entire track history